sensor_id;sensor_type;location;lat;lon;timestamp;P1;durP1;ratioP1;P2;durP2;ratioP2
37459;SDS011;23318;50.966;5.284;2023-09-30T00:01:00;8.55;;;4.70;;
37459;SDS011;23318;50.966;5.284;2023-09-30T00:03:26;7.00;;;4.43;;
37459;SDS011;23318;50.966;5.284;2023-09-30T00:05:53;8.20;;;5.38;;
37459;SDS011;23318;50.966;5.284;2023-09-30T00:08:19;10.15;;;5.43;;
37459;SDS011;23318;50.966;5.284;2023-09-30T00:10:44;9.45;;;5.82;;
37459;SDS011;23318;50.966;5.284;2023-09-30T00:13:11;11.35;;;6.50;;
37459;SDS011;23318;50.966;5.284;2023-09-30T00:15:37;16.63;;;7.50;;
37459;SDS011;23318;50.966;5.284;2023-09-30T00:18:03;10.63;;;6.22;;
37459;SDS011;23318;50.966;5.284;2023-09-30T00:20:30;15.45;;;6.97;;
37459;SDS011;23318;50.966;5.284;2023-09-30T00:22:56;14.90;;;8.38;;
37459;SDS011;23318;50.966;5.284;2023-09-30T00:25:22;14.73;;;8.15;;
37459;SDS011;23318;50.966;5.284;2023-09-30T00:27:48;18.65;;;9.38;;
37459;SDS011;23318;50.966;5.284;2023-09-30T00:30:14;16.80;;;9.85;;
37459;SDS011;23318;50.966;5.284;2023-09-30T00:32:40;13.85;;;8.25;;
37459;SDS011;23318;50.966;5.284;2023-09-30T00:35:06;14.55;;;7.30;;
37459;SDS011;23318;50.966;5.284;2023-09-30T00:37:38;8.27;;;6.03;;
37459;SDS011;23318;50.966;5.284;2023-09-30T00:40:04;14.68;;;6.28;;
37459;SDS011;23318;50.966;5.284;2023-09-30T00:42:31;15.30;;;6.80;;
37459;SDS011;23318;50.966;5.284;2023-09-30T00:44:57;18.63;;;7.18;;
37459;SDS011;23318;50.966;5.284;2023-09-30T00:47:22;12.00;;;7.13;;
37459;SDS011;23318;50.966;5.284;2023-09-30T00:49:49;12.05;;;6.70;;
37459;SDS011;23318;50.966;5.284;2023-09-30T00:52:16;13.32;;;6.65;;
37459;SDS011;23318;50.966;5.284;2023-09-30T00:54:43;13.40;;;7.68;;
37459;SDS011;23318;50.966;5.284;2023-09-30T00:57:09;13.65;;;6.80;;
37459;SDS011;23318;50.966;5.284;2023-09-30T00:59:36;11.63;;;7.03;;
37459;SDS011;23318;50.966;5.284;2023-09-30T01:02:02;14.80;;;7.88;;
37459;SDS011;23318;50.966;5.284;2023-09-30T01:04:30;12.90;;;7.45;;
37459;SDS011;23318;50.966;5.284;2023-09-30T01:06:56;14.68;;;6.85;;
37459;SDS011;23318;50.966;5.284;2023-09-30T01:09:24;17.35;;;7.80;;
37459;SDS011;23318;50.966;5.284;2023-09-30T01:11:50;18.73;;;8.95;;
37459;SDS011;23318;50.966;5.284;2023-09-30T01:14:23;14.32;;;7.85;;
37459;SDS011;23318;50.966;5.284;2023-09-30T01:16:53;15.65;;;8.75;;
37459;SDS011;23318;50.966;5.284;2023-09-30T01:19:19;18.60;;;8.98;;
37459;SDS011;23318;50.966;5.284;2023-09-30T01:21:44;13.68;;;8.55;;
37459;SDS011;23318;50.966;5.284;2023-09-30T01:24:16;15.05;;;8.48;;
37459;SDS011;23318;50.966;5.284;2023-09-30T01:26:42;15.05;;;8.15;;
37459;SDS011;23318;50.966;5.284;2023-09-30T01:29:08;19.20;;;8.00;;
37459;SDS011;23318;50.966;5.284;2023-09-30T01:31:37;17.48;;;8.95;;
37459;SDS011;23318;50.966;5.284;2023-09-30T01:34:04;15.05;;;8.25;;
37459;SDS011;23318;50.966;5.284;2023-09-30T01:36:30;19.20;;;7.97;;
37459;SDS011;23318;50.966;5.284;2023-09-30T01:38:56;19.27;;;9.07;;
37459;SDS011;23318;50.966;5.284;2023-09-30T01:41:22;15.18;;;9.13;;
37459;SDS011;23318;50.966;5.284;2023-09-30T01:43:48;17.80;;;9.00;;
37459;SDS011;23318;50.966;5.284;2023-09-30T01:46:14;20.55;;;8.40;;
37459;SDS011;23318;50.966;5.284;2023-09-30T01:48:40;17.75;;;8.20;;
37459;SDS011;23318;50.966;5.284;2023-09-30T01:51:06;18.77;;;8.35;;
37459;SDS011;23318;50.966;5.284;2023-09-30T01:53:32;25.83;;;7.90;;
37459;SDS011;23318;50.966;5.284;2023-09-30T01:55:58;14.80;;;8.65;;
37459;SDS011;23318;50.966;5.284;2023-09-30T01:58:24;17.02;;;8.10;;
37459;SDS011;23318;50.966;5.284;2023-09-30T02:00:51;16.58;;;8.27;;
37459;SDS011;23318;50.966;5.284;2023-09-30T02:03:17;16.88;;;7.78;;
37459;SDS011;23318;50.966;5.284;2023-09-30T02:05:43;17.08;;;7.78;;
37459;SDS011;23318;50.966;5.284;2023-09-30T02:08:08;13.20;;;7.00;;
37459;SDS011;23318;50.966;5.284;2023-09-30T02:10:34;15.38;;;7.50;;
37459;SDS011;23318;50.966;5.284;2023-09-30T02:13:00;15.70;;;7.50;;
37459;SDS011;23318;50.966;5.284;2023-09-30T02:15:26;17.88;;;7.75;;
37459;SDS011;23318;50.966;5.284;2023-09-30T02:17:52;17.98;;;7.30;;
37459;SDS011;23318;50.966;5.284;2023-09-30T02:20:17;11.55;;;6.93;;
37459;SDS011;23318;50.966;5.284;2023-09-30T02:22:50;14.68;;;6.15;;
37459;SDS011;23318;50.966;5.284;2023-09-30T02:25:17;9.27;;;5.88;;
37459;SDS011;23318;50.966;5.284;2023-09-30T02:27:43;11.13;;;5.55;;
37459;SDS011;23318;50.966;5.284;2023-09-30T02:30:10;12.02;;;5.72;;
37459;SDS011;23318;50.966;5.284;2023-09-30T02:32:39;11.32;;;5.60;;
37459;SDS011;23318;50.966;5.284;2023-09-30T02:35:08;9.02;;;5.68;;
37459;SDS011;23318;50.966;5.284;2023-09-30T02:37:37;9.48;;;4.93;;
37459;SDS011;23318;50.966;5.284;2023-09-30T02:40:03;17.02;;;5.53;;
37459;SDS011;23318;50.966;5.284;2023-09-30T02:42:30;18.23;;;7.28;;
37459;SDS011;23318;50.966;5.284;2023-09-30T02:44:58;16.95;;;7.50;;
37459;SDS011;23318;50.966;5.284;2023-09-30T02:47:25;19.27;;;6.97;;
37459;SDS011;23318;50.966;5.284;2023-09-30T02:49:50;11.60;;;7.15;;
37459;SDS011;23318;50.966;5.284;2023-09-30T02:52:16;14.45;;;5.40;;
37459;SDS011;23318;50.966;5.284;2023-09-30T02:54:42;12.65;;;6.25;;
37459;SDS011;23318;50.966;5.284;2023-09-30T02:57:07;19.20;;;6.97;;
37459;SDS011;23318;50.966;5.284;2023-09-30T02:59:34;14.77;;;5.93;;
37459;SDS011;23318;50.966;5.284;2023-09-30T03:02:01;13.10;;;6.00;;
37459;SDS011;23318;50.966;5.284;2023-09-30T03:04:28;8.25;;;6.07;;
37459;SDS011;23318;50.966;5.284;2023-09-30T03:06:53;10.02;;;6.18;;
37459;SDS011;23318;50.966;5.284;2023-09-30T03:09:21;7.63;;;5.57;;
37459;SDS011;23318;50.966;5.284;2023-09-30T03:11:47;10.05;;;5.35;;
37459;SDS011;23318;50.966;5.284;2023-09-30T03:14:13;9.45;;;5.32;;
37459;SDS011;23318;50.966;5.284;2023-09-30T03:16:39;7.18;;;5.20;;
37459;SDS011;23318;50.966;5.284;2023-09-30T03:19:06;17.65;;;6.03;;
37459;SDS011;23318;50.966;5.284;2023-09-30T03:21:33;9.30;;;5.03;;
37459;SDS011;23318;50.966;5.284;2023-09-30T03:24:04;12.95;;;6.07;;
37459;SDS011;23318;50.966;5.284;2023-09-30T03:26:33;16.42;;;7.57;;
37459;SDS011;23318;50.966;5.284;2023-09-30T03:28:59;16.00;;;7.97;;
37459;SDS011;23318;50.966;5.284;2023-09-30T03:31:25;13.38;;;7.75;;
37459;SDS011;23318;50.966;5.284;2023-09-30T03:33:51;18.40;;;7.90;;
37459;SDS011;23318;50.966;5.284;2023-09-30T03:36:20;14.10;;;8.13;;
37459;SDS011;23318;50.966;5.284;2023-09-30T03:38:47;16.98;;;9.50;;
37459;SDS011;23318;50.966;5.284;2023-09-30T03:41:13;24.85;;;11.30;;
37459;SDS011;23318;50.966;5.284;2023-09-30T03:43:39;19.20;;;9.57;;
37459;SDS011;23318;50.966;5.284;2023-09-30T03:46:08;12.82;;;7.32;;
37459;SDS011;23318;50.966;5.284;2023-09-30T03:48:34;13.48;;;7.35;;
37459;SDS011;23318;50.966;5.284;2023-09-30T03:51:08;15.18;;;7.35;;
37459;SDS011;23318;50.966;5.284;2023-09-30T03:53:34;11.05;;;7.88;;
37459;SDS011;23318;50.966;5.284;2023-09-30T03:56:01;18.20;;;10.18;;
37459;SDS011;23318;50.966;5.284;2023-09-30T03:58:27;18.52;;;9.55;;
37459;SDS011;23318;50.966;5.284;2023-09-30T04:00:53;16.92;;;9.38;;
37459;SDS011;23318;50.966;5.284;2023-09-30T04:03:19;16.60;;;8.80;;
37459;SDS011;23318;50.966;5.284;2023-09-30T04:05:45;17.05;;;8.73;;
37459;SDS011;23318;50.966;5.284;2023-09-30T04:08:11;22.52;;;9.23;;
37459;SDS011;23318;50.966;5.284;2023-09-30T04:10:36;18.95;;;9.57;;
37459;SDS011;23318;50.966;5.284;2023-09-30T04:13:02;23.83;;;10.85;;
37459;SDS011;23318;50.966;5.284;2023-09-30T04:15:28;17.65;;;8.38;;
37459;SDS011;23318;50.966;5.284;2023-09-30T04:17:54;17.08;;;9.23;;
37459;SDS011;23318;50.966;5.284;2023-09-30T04:20:19;21.98;;;8.77;;
37459;SDS011;23318;50.966;5.284;2023-09-30T04:22:51;21.30;;;9.27;;
37459;SDS011;23318;50.966;5.284;2023-09-30T04:25:22;16.38;;;8.38;;
37459;SDS011;23318;50.966;5.284;2023-09-30T04:27:51;19.08;;;9.27;;
37459;SDS011;23318;50.966;5.284;2023-09-30T04:30:17;18.40;;;9.23;;
37459;SDS011;23318;50.966;5.284;2023-09-30T04:32:43;16.08;;;8.20;;
37459;SDS011;23318;50.966;5.284;2023-09-30T04:35:09;23.42;;;9.13;;
37459;SDS011;23318;50.966;5.284;2023-09-30T04:37:35;16.60;;;8.57;;
37459;SDS011;23318;50.966;5.284;2023-09-30T04:40:05;20.48;;;9.88;;
37459;SDS011;23318;50.966;5.284;2023-09-30T04:42:36;18.50;;;9.95;;
37459;SDS011;23318;50.966;5.284;2023-09-30T04:45:02;16.50;;;9.10;;
37459;SDS011;23318;50.966;5.284;2023-09-30T04:47:32;15.98;;;8.98;;
37459;SDS011;23318;50.966;5.284;2023-09-30T04:49:58;19.30;;;9.48;;
37459;SDS011;23318;50.966;5.284;2023-09-30T04:52:24;18.25;;;8.85;;
37459;SDS011;23318;50.966;5.284;2023-09-30T04:54:52;19.30;;;8.93;;
37459;SDS011;23318;50.966;5.284;2023-09-30T04:57:18;18.90;;;9.10;;
37459;SDS011;23318;50.966;5.284;2023-09-30T04:59:45;16.50;;;8.48;;
37459;SDS011;23318;50.966;5.284;2023-09-30T05:02:11;20.38;;;9.80;;
37459;SDS011;23318;50.966;5.284;2023-09-30T05:04:39;18.25;;;10.00;;
37459;SDS011;23318;50.966;5.284;2023-09-30T05:07:06;18.52;;;9.10;;
37459;SDS011;23318;50.966;5.284;2023-09-30T05:09:31;17.92;;;8.85;;
37459;SDS011;23318;50.966;5.284;2023-09-30T05:11:57;18.25;;;8.10;;
37459;SDS011;23318;50.966;5.284;2023-09-30T05:14:22;13.40;;;8.80;;
37459;SDS011;23318;50.966;5.284;2023-09-30T05:16:48;13.02;;;8.02;;
37459;SDS011;23318;50.966;5.284;2023-09-30T05:19:14;15.23;;;7.63;;
37459;SDS011;23318;50.966;5.284;2023-09-30T05:21:39;13.52;;;8.63;;
37459;SDS011;23318;50.966;5.284;2023-09-30T05:24:06;15.75;;;8.57;;
37459;SDS011;23318;50.966;5.284;2023-09-30T05:26:31;14.68;;;8.27;;
37459;SDS011;23318;50.966;5.284;2023-09-30T05:28:58;25.20;;;9.30;;
37459;SDS011;23318;50.966;5.284;2023-09-30T05:31:24;28.63;;;8.77;;
37459;SDS011;23318;50.966;5.284;2023-09-30T05:33:50;16.58;;;8.50;;
37459;SDS011;23318;50.966;5.284;2023-09-30T05:36:16;16.30;;;9.27;;
37459;SDS011;23318;50.966;5.284;2023-09-30T05:38:41;17.88;;;8.48;;
37459;SDS011;23318;50.966;5.284;2023-09-30T05:41:07;16.02;;;7.85;;
37459;SDS011;23318;50.966;5.284;2023-09-30T05:43:33;12.73;;;7.68;;
37459;SDS011;23318;50.966;5.284;2023-09-30T05:45:59;12.45;;;7.00;;
37459;SDS011;23318;50.966;5.284;2023-09-30T05:48:25;14.98;;;7.50;;
37459;SDS011;23318;50.966;5.284;2023-09-30T05:50:50;12.05;;;7.32;;
37459;SDS011;23318;50.966;5.284;2023-09-30T05:53:16;13.05;;;6.82;;
37459;SDS011;23318;50.966;5.284;2023-09-30T05:55:42;9.63;;;6.18;;
37459;SDS011;23318;50.966;5.284;2023-09-30T05:58:12;9.80;;;6.03;;
37459;SDS011;23318;50.966;5.284;2023-09-30T06:00:42;12.90;;;6.22;;
37459;SDS011;23318;50.966;5.284;2023-09-30T06:03:08;10.93;;;7.03;;
37459;SDS011;23318;50.966;5.284;2023-09-30T06:05:38;11.15;;;6.15;;
37459;SDS011;23318;50.966;5.284;2023-09-30T06:08:05;13.90;;;7.07;;
37459;SDS011;23318;50.966;5.284;2023-09-30T06:10:34;11.55;;;7.10;;
37459;SDS011;23318;50.966;5.284;2023-09-30T06:13:00;15.80;;;8.02;;
37459;SDS011;23318;50.966;5.284;2023-09-30T06:15:27;15.95;;;7.78;;
37459;SDS011;23318;50.966;5.284;2023-09-30T06:17:53;20.25;;;7.72;;
37459;SDS011;23318;50.966;5.284;2023-09-30T06:20:23;18.02;;;8.75;;
37459;SDS011;23318;50.966;5.284;2023-09-30T06:22:51;17.65;;;9.80;;
37459;SDS011;23318;50.966;5.284;2023-09-30T06:25:20;21.25;;;10.13;;
37459;SDS011;23318;50.966;5.284;2023-09-30T06:27:48;20.90;;;9.48;;
37459;SDS011;23318;50.966;5.284;2023-09-30T06:30:15;32.95;;;8.95;;
37459;SDS011;23318;50.966;5.284;2023-09-30T06:32:42;19.77;;;9.07;;
37459;SDS011;23318;50.966;5.284;2023-09-30T06:35:08;19.38;;;9.30;;
37459;SDS011;23318;50.966;5.284;2023-09-30T06:37:37;28.55;;;12.95;;
37459;SDS011;23318;50.966;5.284;2023-09-30T06:40:06;24.42;;;12.00;;
37459;SDS011;23318;50.966;5.284;2023-09-30T06:42:34;25.88;;;11.18;;
37459;SDS011;23318;50.966;5.284;2023-09-30T06:45:01;25.35;;;11.32;;
37459;SDS011;23318;50.966;5.284;2023-09-30T06:47:30;17.25;;;10.23;;
37459;SDS011;23318;50.966;5.284;2023-09-30T06:49:58;22.88;;;10.88;;
37459;SDS011;23318;50.966;5.284;2023-09-30T06:52:34;25.23;;;13.13;;
37459;SDS011;23318;50.966;5.284;2023-09-30T06:55:04;21.25;;;12.45;;
37459;SDS011;23318;50.966;5.284;2023-09-30T06:57:34;26.90;;;15.18;;
37459;SDS011;23318;50.966;5.284;2023-09-30T07:00:01;29.20;;;15.60;;
37459;SDS011;23318;50.966;5.284;2023-09-30T07:02:34;35.85;;;16.05;;
37459;SDS011;23318;50.966;5.284;2023-09-30T07:05:01;29.80;;;15.65;;
37459;SDS011;23318;50.966;5.284;2023-09-30T07:07:33;34.33;;;16.83;;
37459;SDS011;23318;50.966;5.284;2023-09-30T07:09:59;32.55;;;15.20;;
37459;SDS011;23318;50.966;5.284;2023-09-30T07:12:24;33.08;;;17.27;;
37459;SDS011;23318;50.966;5.284;2023-09-30T07:14:50;34.05;;;17.23;;
37459;SDS011;23318;50.966;5.284;2023-09-30T07:17:16;34.30;;;17.88;;
37459;SDS011;23318;50.966;5.284;2023-09-30T07:19:42;33.65;;;17.15;;
37459;SDS011;23318;50.966;5.284;2023-09-30T07:22:08;33.95;;;17.75;;
37459;SDS011;23318;50.966;5.284;2023-09-30T07:24:33;32.20;;;17.98;;
37459;SDS011;23318;50.966;5.284;2023-09-30T07:26:59;35.35;;;17.10;;
37459;SDS011;23318;50.966;5.284;2023-09-30T07:29:25;34.20;;;17.75;;
37459;SDS011;23318;50.966;5.284;2023-09-30T07:31:50;27.30;;;15.40;;
37459;SDS011;23318;50.966;5.284;2023-09-30T07:34:16;34.67;;;17.98;;
37459;SDS011;23318;50.966;5.284;2023-09-30T07:36:41;33.08;;;17.30;;
37459;SDS011;23318;50.966;5.284;2023-09-30T07:39:07;36.55;;;17.38;;
37459;SDS011;23318;50.966;5.284;2023-09-30T07:41:37;34.63;;;17.27;;
37459;SDS011;23318;50.966;5.284;2023-09-30T07:44:02;28.98;;;16.50;;
37459;SDS011;23318;50.966;5.284;2023-09-30T07:46:29;29.35;;;15.93;;
37459;SDS011;23318;50.966;5.284;2023-09-30T07:48:55;34.30;;;17.17;;
37459;SDS011;23318;50.966;5.284;2023-09-30T07:51:21;30.20;;;17.00;;
37459;SDS011;23318;50.966;5.284;2023-09-30T07:53:46;33.13;;;17.50;;
37459;SDS011;23318;50.966;5.284;2023-09-30T07:56:13;33.67;;;17.40;;
37459;SDS011;23318;50.966;5.284;2023-09-30T07:58:39;32.42;;;18.95;;
37459;SDS011;23318;50.966;5.284;2023-09-30T08:01:04;36.35;;;20.90;;
37459;SDS011;23318;50.966;5.284;2023-09-30T08:03:30;38.42;;;20.92;;
37459;SDS011;23318;50.966;5.284;2023-09-30T08:05:56;47.80;;;23.05;;
37459;SDS011;23318;50.966;5.284;2023-09-30T08:08:23;44.97;;;23.48;;
37459;SDS011;23318;50.966;5.284;2023-09-30T08:10:49;46.63;;;26.05;;
37459;SDS011;23318;50.966;5.284;2023-09-30T08:13:15;49.53;;;26.65;;
37459;SDS011;23318;50.966;5.284;2023-09-30T08:15:42;54.88;;;29.00;;
37459;SDS011;23318;50.966;5.284;2023-09-30T08:18:08;53.17;;;29.38;;
37459;SDS011;23318;50.966;5.284;2023-09-30T08:20:33;61.30;;;30.13;;
37459;SDS011;23318;50.966;5.284;2023-09-30T08:22:59;61.47;;;30.95;;
37459;SDS011;23318;50.966;5.284;2023-09-30T08:25:25;61.55;;;31.45;;
37459;SDS011;23318;50.966;5.284;2023-09-30T08:27:51;67.47;;;31.88;;
37459;SDS011;23318;50.966;5.284;2023-09-30T08:30:17;61.60;;;29.63;;
37459;SDS011;23318;50.966;5.284;2023-09-30T08:32:43;58.75;;;28.33;;
37459;SDS011;23318;50.966;5.284;2023-09-30T08:35:09;63.50;;;29.75;;
37459;SDS011;23318;50.966;5.284;2023-09-30T08:37:35;62.38;;;31.27;;
37459;SDS011;23318;50.966;5.284;2023-09-30T08:40:00;52.15;;;26.88;;
37459;SDS011;23318;50.966;5.284;2023-09-30T08:42:29;54.65;;;27.88;;
37459;SDS011;23318;50.966;5.284;2023-09-30T08:44:58;52.33;;;25.63;;
37459;SDS011;23318;50.966;5.284;2023-09-30T08:47:27;46.67;;;24.55;;
37459;SDS011;23318;50.966;5.284;2023-09-30T08:49:54;42.10;;;23.00;;
37459;SDS011;23318;50.966;5.284;2023-09-30T08:52:22;46.42;;;23.52;;
37459;SDS011;23318;50.966;5.284;2023-09-30T08:54:49;37.13;;;21.13;;
37459;SDS011;23318;50.966;5.284;2023-09-30T08:57:16;39.70;;;21.35;;
37459;SDS011;23318;50.966;5.284;2023-09-30T08:59:44;38.33;;;20.63;;
37459;SDS011;23318;50.966;5.284;2023-09-30T09:02:14;37.83;;;19.75;;
37459;SDS011;23318;50.966;5.284;2023-09-30T09:04:39;39.58;;;22.52;;
37459;SDS011;23318;50.966;5.284;2023-09-30T09:07:05;43.35;;;21.88;;
37459;SDS011;23318;50.966;5.284;2023-09-30T09:09:31;40.88;;;23.17;;
37459;SDS011;23318;50.966;5.284;2023-09-30T09:11:57;36.85;;;21.83;;
37459;SDS011;23318;50.966;5.284;2023-09-30T09:14:39;36.53;;;20.30;;
37459;SDS011;23318;50.966;5.284;2023-09-30T09:17:06;35.58;;;20.17;;
37459;SDS011;23318;50.966;5.284;2023-09-30T09:19:33;39.72;;;22.35;;
37459;SDS011;23318;50.966;5.284;2023-09-30T09:22:00;38.72;;;22.08;;
37459;SDS011;23318;50.966;5.284;2023-09-30T09:24:33;38.40;;;21.75;;
37459;SDS011;23318;50.966;5.284;2023-09-30T09:27:03;36.10;;;19.88;;
37459;SDS011;23318;50.966;5.284;2023-09-30T09:29:30;36.97;;;21.42;;
37459;SDS011;23318;50.966;5.284;2023-09-30T09:32:06;35.25;;;21.02;;
37459;SDS011;23318;50.966;5.284;2023-09-30T09:34:33;32.80;;;20.13;;
37459;SDS011;23318;50.966;5.284;2023-09-30T09:36:58;34.63;;;20.40;;
37459;SDS011;23318;50.966;5.284;2023-09-30T09:39:30;33.38;;;19.55;;
37459;SDS011;23318;50.966;5.284;2023-09-30T09:41:56;32.90;;;18.98;;
37459;SDS011;23318;50.966;5.284;2023-09-30T09:44:23;26.73;;;17.20;;
37459;SDS011;23318;50.966;5.284;2023-09-30T09:46:52;29.02;;;18.35;;
37459;SDS011;23318;50.966;5.284;2023-09-30T09:49:19;29.40;;;18.77;;
37459;SDS011;23318;50.966;5.284;2023-09-30T09:51:45;25.85;;;16.77;;
37459;SDS011;23318;50.966;5.284;2023-09-30T09:54:13;26.88;;;17.63;;
37459;SDS011;23318;50.966;5.284;2023-09-30T09:56:41;24.83;;;17.33;;
37459;SDS011;23318;50.966;5.284;2023-09-30T09:59:13;25.95;;;16.73;;
37459;SDS011;23318;50.966;5.284;2023-09-30T10:01:39;26.58;;;15.82;;
37459;SDS011;23318;50.966;5.284;2023-09-30T10:04:06;25.13;;;16.60;;
37459;SDS011;23318;50.966;5.284;2023-09-30T10:06:33;27.40;;;16.75;;
37459;SDS011;23318;50.966;5.284;2023-09-30T10:09:07;25.00;;;16.02;;
37459;SDS011;23318;50.966;5.284;2023-09-30T10:11:35;22.70;;;16.13;;
37459;SDS011;23318;50.966;5.284;2023-09-30T10:14:03;20.92;;;14.82;;
37459;SDS011;23318;50.966;5.284;2023-09-30T10:19:22;19.98;;;13.30;;
37459;SDS011;23318;50.966;5.284;2023-09-30T10:24:48;16.02;;;12.07;;
37459;SDS011;23318;50.966;5.284;2023-09-30T10:35:17;14.35;;;10.10;;
37459;SDS011;23318;50.966;5.284;2023-09-30T10:37:44;13.70;;;9.57;;
37459;SDS011;23318;50.966;5.284;2023-09-30T10:40:10;15.50;;;9.68;;
37459;SDS011;23318;50.966;5.284;2023-09-30T10:42:52;13.70;;;9.40;;
37459;SDS011;23318;50.966;5.284;2023-09-30T10:48:32;14.10;;;8.77;;
37459;SDS011;23318;50.966;5.284;2023-09-30T10:51:12;13.15;;;8.38;;
37459;SDS011;23318;50.966;5.284;2023-09-30T10:53:49;11.00;;;8.52;;
37459;SDS011;23318;50.966;5.284;2023-09-30T10:56:16;10.93;;;8.10;;
37459;SDS011;23318;50.966;5.284;2023-09-30T10:58:43;14.27;;;8.35;;
37459;SDS011;23318;50.966;5.284;2023-09-30T11:01:20;13.77;;;8.13;;
37459;SDS011;23318;50.966;5.284;2023-09-30T11:03:47;13.77;;;8.20;;
37459;SDS011;23318;50.966;5.284;2023-09-30T11:06:17;8.43;;;7.45;;
37459;SDS011;23318;50.966;5.284;2023-09-30T11:08:50;15.27;;;8.18;;
37459;SDS011;23318;50.966;5.284;2023-09-30T11:11:19;7.88;;;6.70;;
37459;SDS011;23318;50.966;5.284;2023-09-30T11:13:44;9.85;;;7.90;;
37459;SDS011;23318;50.966;5.284;2023-09-30T11:16:10;12.73;;;7.95;;
37459;SDS011;23318;50.966;5.284;2023-09-30T11:18:36;11.05;;;7.30;;
37459;SDS011;23318;50.966;5.284;2023-09-30T11:21:08;11.95;;;7.63;;
37459;SDS011;23318;50.966;5.284;2023-09-30T11:23:36;8.73;;;6.80;;
37459;SDS011;23318;50.966;5.284;2023-09-30T11:26:02;13.48;;;8.23;;
37459;SDS011;23318;50.966;5.284;2023-09-30T11:28:42;13.45;;;7.22;;
37459;SDS011;23318;50.966;5.284;2023-09-30T11:31:12;12.68;;;7.82;;
37459;SDS011;23318;50.966;5.284;2023-09-30T11:33:52;11.30;;;7.90;;
37459;SDS011;23318;50.966;5.284;2023-09-30T11:36:19;10.18;;;7.05;;
37459;SDS011;23318;50.966;5.284;2023-09-30T11:38:46;11.18;;;7.50;;
37459;SDS011;23318;50.966;5.284;2023-09-30T11:41:14;15.73;;;9.68;;
37459;SDS011;23318;50.966;5.284;2023-09-30T11:43:57;12.43;;;7.63;;
37459;SDS011;23318;50.966;5.284;2023-09-30T11:46:30;11.98;;;8.77;;
37459;SDS011;23318;50.966;5.284;2023-09-30T11:49:02;10.80;;;7.53;;
37459;SDS011;23318;50.966;5.284;2023-09-30T11:51:30;15.05;;;8.25;;
37459;SDS011;23318;50.966;5.284;2023-09-30T11:54:08;15.80;;;7.80;;
37459;SDS011;23318;50.966;5.284;2023-09-30T11:56:35;12.82;;;6.90;;
37459;SDS011;23318;50.966;5.284;2023-09-30T11:59:02;11.77;;;7.15;;
37459;SDS011;23318;50.966;5.284;2023-09-30T12:01:29;11.65;;;6.97;;
37459;SDS011;23318;50.966;5.284;2023-09-30T12:03:57;10.40;;;6.88;;
37459;SDS011;23318;50.966;5.284;2023-09-30T12:06:23;8.65;;;6.00;;
37459;SDS011;23318;50.966;5.284;2023-09-30T12:08:49;8.98;;;6.03;;
37459;SDS011;23318;50.966;5.284;2023-09-30T12:11:17;12.85;;;6.13;;
37459;SDS011;23318;50.966;5.284;2023-09-30T12:13:45;11.27;;;5.68;;
37459;SDS011;23318;50.966;5.284;2023-09-30T12:16:14;10.00;;;5.78;;
37459;SDS011;23318;50.966;5.284;2023-09-30T12:18:40;9.23;;;5.20;;
37459;SDS011;23318;50.966;5.284;2023-09-30T12:21:12;10.60;;;5.13;;
37459;SDS011;23318;50.966;5.284;2023-09-30T12:23:45;9.70;;;5.57;;
37459;SDS011;23318;50.966;5.284;2023-09-30T12:26:11;11.73;;;5.78;;
37459;SDS011;23318;50.966;5.284;2023-09-30T12:28:37;9.15;;;5.65;;
37459;SDS011;23318;50.966;5.284;2023-09-30T12:31:04;8.20;;;5.30;;
37459;SDS011;23318;50.966;5.284;2023-09-30T12:33:30;10.95;;;5.32;;
37459;SDS011;23318;50.966;5.284;2023-09-30T12:35:57;7.65;;;4.13;;
37459;SDS011;23318;50.966;5.284;2023-09-30T12:38:26;8.05;;;4.25;;
37459;SDS011;23318;50.966;5.284;2023-09-30T12:40:53;9.40;;;4.18;;
37459;SDS011;23318;50.966;5.284;2023-09-30T12:43:20;9.98;;;4.28;;
37459;SDS011;23318;50.966;5.284;2023-09-30T12:45:46;8.57;;;3.90;;
37459;SDS011;23318;50.966;5.284;2023-09-30T12:48:12;7.85;;;4.25;;
37459;SDS011;23318;50.966;5.284;2023-09-30T12:50:39;11.90;;;5.25;;
37459;SDS011;23318;50.966;5.284;2023-09-30T12:53:05;6.25;;;3.85;;
37459;SDS011;23318;50.966;5.284;2023-09-30T12:55:31;8.13;;;3.83;;
37459;SDS011;23318;50.966;5.284;2023-09-30T12:57:57;8.95;;;3.90;;
37459;SDS011;23318;50.966;5.284;2023-09-30T13:00:24;6.65;;;4.13;;
37459;SDS011;23318;50.966;5.284;2023-09-30T13:02:51;7.22;;;4.78;;
37459;SDS011;23318;50.966;5.284;2023-09-30T13:05:17;8.95;;;4.22;;
37459;SDS011;23318;50.966;5.284;2023-09-30T13:07:43;7.60;;;3.92;;
37459;SDS011;23318;50.966;5.284;2023-09-30T13:10:08;7.93;;;4.18;;
37459;SDS011;23318;50.966;5.284;2023-09-30T13:12:35;10.02;;;3.85;;
37459;SDS011;23318;50.966;5.284;2023-09-30T13:15:00;7.88;;;4.13;;
37459;SDS011;23318;50.966;5.284;2023-09-30T13:17:26;8.77;;;3.85;;
37459;SDS011;23318;50.966;5.284;2023-09-30T13:19:53;7.05;;;3.28;;
37459;SDS011;23318;50.966;5.284;2023-09-30T13:22:19;8.30;;;3.97;;
37459;SDS011;23318;50.966;5.284;2023-09-30T13:24:45;4.82;;;3.22;;
37459;SDS011;23318;50.966;5.284;2023-09-30T13:27:11;6.90;;;3.72;;
37459;SDS011;23318;50.966;5.284;2023-09-30T13:29:36;10.80;;;4.20;;
37459;SDS011;23318;50.966;5.284;2023-09-30T13:32:03;4.88;;;3.50;;
37459;SDS011;23318;50.966;5.284;2023-09-30T13:34:29;8.65;;;3.60;;
37459;SDS011;23318;50.966;5.284;2023-09-30T13:36:55;7.80;;;3.67;;
37459;SDS011;23318;50.966;5.284;2023-09-30T13:39:23;6.07;;;3.40;;
37459;SDS011;23318;50.966;5.284;2023-09-30T13:41:50;6.18;;;3.40;;
37459;SDS011;23318;50.966;5.284;2023-09-30T13:44:15;8.52;;;3.20;;
37459;SDS011;23318;50.966;5.284;2023-09-30T13:46:41;7.72;;;3.42;;
37459;SDS011;23318;50.966;5.284;2023-09-30T13:49:07;5.97;;;3.60;;
37459;SDS011;23318;50.966;5.284;2023-09-30T13:51:33;5.35;;;3.10;;
37459;SDS011;23318;50.966;5.284;2023-09-30T13:53:59;9.48;;;4.03;;
37459;SDS011;23318;50.966;5.284;2023-09-30T13:56:25;5.95;;;4.07;;
37459;SDS011;23318;50.966;5.284;2023-09-30T13:58:50;5.40;;;3.55;;
37459;SDS011;23318;50.966;5.284;2023-09-30T14:01:17;6.00;;;3.45;;
37459;SDS011;23318;50.966;5.284;2023-09-30T14:03:45;6.65;;;3.70;;
37459;SDS011;23318;50.966;5.284;2023-09-30T14:06:12;6.03;;;3.45;;
37459;SDS011;23318;50.966;5.284;2023-09-30T14:08:38;7.13;;;3.58;;
37459;SDS011;23318;50.966;5.284;2023-09-30T14:11:07;6.47;;;3.35;;
37459;SDS011;23318;50.966;5.284;2023-09-30T14:13:33;6.88;;;3.63;;
37459;SDS011;23318;50.966;5.284;2023-09-30T14:15:59;7.85;;;3.30;;
37459;SDS011;23318;50.966;5.284;2023-09-30T14:18:25;5.35;;;3.38;;
37459;SDS011;23318;50.966;5.284;2023-09-30T14:20:50;5.63;;;3.50;;
37459;SDS011;23318;50.966;5.284;2023-09-30T14:23:16;6.15;;;3.70;;
37459;SDS011;23318;50.966;5.284;2023-09-30T14:25:41;8.20;;;3.33;;
37459;SDS011;23318;50.966;5.284;2023-09-30T14:28:07;4.97;;;3.58;;
37459;SDS011;23318;50.966;5.284;2023-09-30T14:30:33;9.30;;;3.92;;
37459;SDS011;23318;50.966;5.284;2023-09-30T14:32:59;11.32;;;4.43;;
37459;SDS011;23318;50.966;5.284;2023-09-30T14:35:25;7.70;;;3.72;;
37459;SDS011;23318;50.966;5.284;2023-09-30T14:37:51;6.32;;;3.88;;
37459;SDS011;23318;50.966;5.284;2023-09-30T14:40:19;6.10;;;3.25;;
37459;SDS011;23318;50.966;5.284;2023-09-30T14:42:45;6.50;;;3.55;;
37459;SDS011;23318;50.966;5.284;2023-09-30T14:45:11;8.45;;;4.00;;
37459;SDS011;23318;50.966;5.284;2023-09-30T14:47:37;8.38;;;4.00;;
37459;SDS011;23318;50.966;5.284;2023-09-30T14:50:03;8.82;;;4.13;;